Narberth, United Kingdom
Current Conditions -  °F | °C
As of 12:50 AM on Sunday 23 Nov 2014 (Local Time) from EGOP Reporting Station
Broken Clouds Broken Clouds  
Wind Chill:   Ceiling: 7000
Heat Index:   Visibility: 6mi
Dew Point:   Wind: 8mph
Humidity: 100%   Direction: 330°NNW
Pressure: 30.03"   Gusts: NA
Location:  51.8°N, 4.74°W
Report Text: EGOP 230050Z AUTO 33007KT 9999 // BKN070/// 08/08 Q1017
Loading
Personal Weather Stations






























Interactive Weather Map New forecast layout! Learn more

10-Day Weather Forecast

Advertisements
Track Severe Weather on mobile